Weather History for Red Oak, IA

Change the Weather History Date:

Saturday, December 28, 2013

  Actual Average Record
Temperature  
Mean Temperature 34 °F -  
Max Temperature 46 °F 34 °F 67 °F (1984)
Min Temperature 19 °F 17 °F -6 °F (1961)
Degree Days  
Heating Degree Days 32    
Moisture  
Dew Point 28 °F    
Average Humidity 74    
Maximum Humidity 87    
Minimum Humidity 57    
Precipitation  
Precipitation 0.00 in - - ()
Sea Level Pressure  
Sea Level Pressure 29.94 in    
Wind  
Wind Speed 10 mph (SSW)    
Max Wind Speed 28 mph    
Max Gust Speed 38 mph    
Visibility 10 miles    
Events Snow    
Averages and records for this station are not official NWS values.
T = Trace of Precipitation, MM = Missing Value Source: NWS Daily Summary

Daily Weather History Graph

Daily Weather History Graph

Search for Another Location

Airport:

Trip Planner

Search our weather history database for the weather conditions in past years. The results will help you decide how hot, cold, wet, or windy it might be!

Date:

Astronomy

Dec. 28, 2013 Rise Set
Actual Time 7:45 AM CST 5:00 PM CST
Civil Twilight 7:14 AM CST 5:31 PM CST
Nautical Twilight 6:39 AM CST 6:06 PM CST
Astronomical Twilight 6:06 AM CST 6:39 PM CST
Moon 3:22 AM CST (12/28) 1:53 PM CST (12/28)
Length of Visible Light 10h 17m
Length of Day
9h 15m
Waning Crescent, 19% of the Moon is Illuminated
Dec 28
Waning Crescent
Jan 1
New
Jan 7
First Quarter
Jan 15
Full
Jan 23
Last Quarter

Hourly Weather History & Observations

Time (CST) Temp. Windchill Dew Point Humidity Pressure Visibility Wind Dir Wind Speed Gust Speed Precip Events Conditions
12:15 AM 32.0 °F 27.5 °F 26.6 °F 80% 30.09 in 10.0 mi South 4.6 mph - N/A   Clear
12:35 AM 33.8 °F 28.6 °F 26.6 °F 75% 30.09 in 10.0 mi SSW 5.8 mph - N/A   Unknown
12:55 AM 32.0 °F 24.8 °F 26.6 °F 80% 30.07 in 10.0 mi South 8.1 mph - N/A   Unknown
1:15 AM 32.0 °F 25.6 °F 26.6 °F 80% 30.07 in 10.0 mi South 6.9 mph - N/A   Unknown
1:35 AM 30.2 °F 22.6 °F 26.6 °F 86% 30.06 in 10.0 mi South 8.1 mph - N/A   Clear
1:55 AM 32.0 °F 27.5 °F 26.6 °F 80% 30.06 in 10.0 mi SSW 4.6 mph - N/A   Clear
2:15 AM 32.0 °F 26.4 °F 26.6 °F 80% 30.05 in 10.0 mi SSW 5.8 mph - N/A   Clear
2:35 AM 32.0 °F 25.6 °F 26.6 °F 80% 30.05 in 10.0 mi South 6.9 mph - N/A   Clear
3:15 AM 32.0 °F 24.8 °F 26.6 °F 80% 30.04 in 10.0 mi SSW 8.1 mph - N/A   Clear
3:35 AM 32.0 °F 24.8 °F 26.6 °F 80% 30.03 in 10.0 mi SSW 8.1 mph - N/A   Clear
3:55 AM 32.0 °F 24.8 °F 26.6 °F 80% 30.02 in 10.0 mi SSW 8.1 mph - N/A   Clear
4:15 AM 30.2 °F 22.6 °F 26.6 °F 86% 30.01 in 10.0 mi SSW 8.1 mph - N/A   Clear
4:35 AM 30.2 °F 24.3 °F 26.6 °F 86% 30.01 in 10.0 mi SSW 5.8 mph - N/A   Clear
4:55 AM 30.2 °F 25.4 °F 26.6 °F 86% 30.00 in 10.0 mi SSW 4.6 mph - N/A   Clear
5:15 AM 30.2 °F 25.4 °F 26.6 °F 86% 29.99 in 10.0 mi SSW 4.6 mph - N/A   Unknown
5:35 AM 28.4 °F 23.3 °F 24.8 °F 86% 29.99 in 10.0 mi SSW 4.6 mph - N/A   Unknown
5:55 AM 28.4 °F 22.2 °F 24.8 °F 86% 29.98 in 10.0 mi SSW 5.8 mph - N/A   Unknown
6:15 AM 30.2 °F 23.4 °F 26.6 °F 86% 29.98 in 10.0 mi SSW 6.9 mph - N/A   Unknown
6:35 AM 30.2 °F 23.4 °F 26.6 °F 86% 29.98 in 10.0 mi SSW 6.9 mph - N/A   Unknown
6:55 AM 32.0 °F 24.2 °F 26.6 °F 80% 29.97 in 10.0 mi SSW 9.2 mph - N/A   Unknown
7:15 AM 30.2 °F 22.6 °F 26.6 °F 86% 29.97 in 10.0 mi SSW 8.1 mph - N/A   Unknown
7:35 AM 30.2 °F 22.6 °F 26.6 °F 86% 29.97 in - SSW 8.1 mph - N/A   Unknown
7:55 AM 30.2 °F 21.9 °F 26.6 °F 86% 29.97 in 10.0 mi SSW 9.2 mph - N/A   Unknown
8:15 AM 32.0 °F 24.8 °F 26.6 °F 80% 29.97 in 10.0 mi SSW 8.1 mph - N/A   Clear
8:35 AM 32.0 °F 24.8 °F 28.4 °F 87% 29.96 in 10.0 mi SSW 8.1 mph - N/A   Clear
8:55 AM 33.8 °F 27.0 °F 28.4 °F 81% 29.95 in 10.0 mi SSW 8.1 mph - N/A   Clear
9:15 AM 35.6 °F 29.9 °F 30.2 °F 81% 29.96 in 10.0 mi SSW 6.9 mph - N/A   Clear
9:35 AM 35.6 °F 28.0 °F 30.2 °F 81% 29.96 in 10.0 mi South 10.4 mph - N/A   Clear
9:55 AM 37.4 °F 29.3 °F 30.2 °F 75% 29.95 in 10.0 mi South 12.7 mph - N/A   Clear
10:15 AM 39.2 °F 31.2 °F 30.2 °F 70% 29.94 in 10.0 mi South 13.8 mph - N/A   Clear
10:35 AM 41.0 °F 33.5 °F 32.0 °F 70% 29.94 in 10.0 mi South 13.8 mph - N/A   Clear
10:55 AM 41.0 °F 33.1 °F 32.0 °F 70% 29.93 in 10.0 mi South 15.0 mph - N/A   Clear
11:15 AM 42.8 °F 36.2 °F 32.0 °F 66% 29.92 in 10.0 mi South 12.7 mph - N/A   Clear
11:35 AM 44.6 °F 37.8 °F 32.0 °F 61% 29.91 in 10.0 mi South 15.0 mph - N/A   Clear
11:55 AM 44.6 °F 38.1 °F 32.0 °F 61% 29.90 in 10.0 mi South 13.8 mph - N/A   Clear
12:15 PM 46.4 °F 40.1 °F 32.0 °F 57% 29.88 in 10.0 mi South 15.0 mph - N/A   Clear
12:35 PM 46.4 °F 40.1 °F 32.0 °F 57% 29.87 in 10.0 mi SSW 15.0 mph - N/A   Clear
12:55 PM 46.4 °F 39.8 °F 32.0 °F 57% 29.86 in 10.0 mi South 16.1 mph - N/A   Clear
1:15 PM 46.4 °F 40.4 °F 32.0 °F 57% 29.85 in 10.0 mi South 13.8 mph - N/A   Clear
1:35 PM 46.4 °F 39.5 °F 32.0 °F 57% 29.84 in 10.0 mi South 17.3 mph - N/A   Clear
1:55 PM 46.4 °F 40.7 °F 32.0 °F 57% 29.83 in 10.0 mi South 12.7 mph 20.7 mph N/A   Clear
2:15 PM 46.4 °F 40.4 °F 33.8 °F 62% 29.81 in 10.0 mi South 13.8 mph - N/A   Clear
2:35 PM 46.4 °F 40.1 °F 33.8 °F 62% 29.81 in 10.0 mi South 15.0 mph 21.9 mph N/A   Clear
2:55 PM 46.4 °F 40.4 °F 33.8 °F 62% 29.81 in 10.0 mi South 13.8 mph - N/A   Clear
3:15 PM 46.4 °F 40.1 °F 33.8 °F 62% 29.80 in 10.0 mi South 15.0 mph - N/A   Clear
3:35 PM 46.4 °F 40.7 °F 33.8 °F 62% 29.80 in 10.0 mi South 12.7 mph - N/A   Clear
3:55 PM 44.6 °F 38.4 °F 33.8 °F 66% 29.80 in 10.0 mi South 12.7 mph - N/A   Clear
4:15 PM 44.6 °F 38.4 °F 32.0 °F 61% 29.80 in 10.0 mi South 12.7 mph - N/A   Clear
4:35 PM 42.8 °F 38.6 °F 32.0 °F 66% 29.81 in 10.0 mi South 6.9 mph - N/A   Clear
4:55 PM 39.2 °F 34.2 °F 32.0 °F 75% 29.81 in 10.0 mi South 6.9 mph - N/A   Clear
5:15 PM 37.4 °F 31.4 °F 30.2 °F 75% 29.80 in 10.0 mi South 8.1 mph - N/A   Clear
5:35 PM 37.4 °F 31.4 °F 30.2 °F 75% 29.82 in 10.0 mi South 8.1 mph - N/A   Unknown
6:55 PM 35.6 °F 29.2 °F 30.2 °F 81% 29.83 in 10.0 mi SSW 8.1 mph - N/A   Unknown
7:15 PM 37.4 °F 30.3 °F 30.2 °F 75% 29.86 in 10.0 mi SW 10.4 mph - N/A   Unknown
7:35 PM 39.2 °F 32.5 °F 30.2 °F 70% 29.87 in 10.0 mi West 10.4 mph - N/A   Unknown
7:55 PM 39.2 °F 31.2 °F 30.2 °F 70% 29.89 in 10.0 mi NW 13.8 mph - N/A   Unknown
8:35 PM 37.4 °F 27.8 °F 28.4 °F 70% 29.91 in 10.0 mi NW 17.3 mph 24.2 mph N/A   Clear
8:55 PM 35.6 °F 24.2 °F 28.4 °F 75% 29.93 in 10.0 mi NW 21.9 mph 27.6 mph N/A   Unknown
9:15 PM 33.8 °F 21.3 °F 28.4 °F 81% 29.95 in 10.0 mi NW 24.2 mph 33.4 mph N/A   Unknown
9:35 PM 32.0 °F 18.6 °F 26.6 °F 80% 29.97 in 10.0 mi NW 25.3 mph 35.7 mph N/A   Unknown
10:15 PM 26.6 °F 11.7 °F 21.2 °F 80% 30.01 in 10.0 mi NW 24.2 mph 34.5 mph N/A   Unknown
10:35 PM 26.6 °F 13.1 °F 19.4 °F 74% 30.03 in 10.0 mi NNW 19.6 mph 38.0 mph N/A   Unknown
10:55 PM 24.8 °F 9.0 °F 17.6 °F 74% 30.04 in 10.0 mi NW 25.3 mph 33.4 mph N/A   Overcast
11:35 PM 21.2 °F 4.5 °F 14.0 °F 74% 30.07 in 10.0 mi NW 24.2 mph 32.2 mph N/A Snow Light Snow
11:55 PM 19.4 °F 1.1 °F 12.2 °F 74% 30.08 in 10.0 mi NNW 27.6 mph 38.0 mph N/A   Unknown